Observations for BARCELONA AIRPORT, Spain (LEBL)

LEBL 232000Z 25007KT 9999 FEW030 12/04 Q1013 NOSIG  
LEBL 231930Z 22007KT 9999 FEW030 13/03 Q1012 NOSIG  
LEBL 231900Z 21007KT 9999 FEW030 13/04 Q1012 NOSIG  
LEBL 231830Z 21008KT 9999 FEW030 13/04 Q1011 NOSIG  
LEBL 231800Z 21009KT 160V230 9999 FEW030 13/04 Q1011 NOSIG  
LEBL 231730Z 20008KT 9999 FEW030 14/03 Q1010 NOSIG  
LEBL 231700Z 19010KT 9999 FEW030 14/03 Q1010 NOSIG  
LEBL 231630Z 20010KT 9999 FEW030 14/03 Q1010 NOSIG  
LEBL 231600Z 21012KT 9999 FEW030 14/03 Q1010 NOSIG  
LEBL 231530Z 20012KT 9999 FEW030 15/03 Q1009 NOSIG  
LEBL 231500Z 20012KT 9999 FEW030 15/02 Q1009 NOSIG  
LEBL 231430Z 21012KT 9999 FEW030 15/04 Q1009 NOSIG  
LEBL 231400Z 21013KT 9999 FEW030 15/05 Q1009 NOSIG  
LEBL 231330Z 20014KT 9999 FEW030 15/05 Q1009 NOSIG  
LEBL 231300Z 19008KT 150V220 9999 FEW030 16/03 Q1009 NOSIG  
LEBL 231230Z 36007KT 340V050 9999 FEW030 15/03 Q1009 NOSIG  
LEBL 231200Z 33011G21KT 300V010 9999 FEW030 15/02 Q1009 NOSIG   
LEBL 231130Z 34010KT 9999 FEW030 16/03 Q1009 NOSIG  
LEBL 231100Z 32012KT 290V350 9999 FEW030 15/03 Q1009 NOSIG  
LEBL 231030Z 34013KT 9999 FEW030 15/03 Q1009 NOSIG  
LEBL 231000Z 32015G27KT 290V350 9999 FEW025 14/02 Q1009 NOSIG   
LEBL 230930Z 32014G27KT 290V350 9999 FEW025 13/03 Q1009 NOSIG   
LEBL 230900Z 32015G28KT 9999 FEW020 SCT045 13/03 Q1009 NOSIG
LEBL 230830Z 33017G28KT 9999 FEW020 13/03 Q1009 NOSIG   
LEBL 230800Z 32016G26KT 290V350 9999 FEW020 12/03 Q1009 NOSIG   
LEBL 230730Z 32016KT 290V350 9999 FEW020 SCT039 12/03 Q1008 NOSIG   
LEBL 230700Z 32011KT 290V350 9999 FEW020 SCT039 11/03 Q1008 NOSIG   
LEBL 230630Z 32013KT 9999 FEW020 SCT039 11/03 Q1008 NOSIG   
LEBL 230600Z 33012KT 9999 FEW020 SCT035 BKN055 11/04 Q1007 NOSIG
LEBL 230530Z 33011KT 310V010 9999 FEW025 SCT055 10/04 Q1007 NOSIG   
LEBL 230500Z 33012KT 9999 FEW025 10/05 Q1007 NOSIG  
LEBL 230430Z 33010KT 9999 FEW025 11/06 Q1007 NOSIG  
LEBL 230400Z 32010KT 9999 FEW025 11/09 Q1007 NOSIG  
LEBL 230330Z 32007KT 9000 FEW025 11/10 Q1007 NOSIG  
LEBL 230300Z 33007KT 9000 FEW025 11/10 Q1007 NOSIG  
LEBL 230230Z 32006KT 9000 FEW025 11/10 Q1007 NOSIG  
LEBL 230200Z 32003KT 9000 FEW025 11/10 Q1007 NOSIG  
LEBL 230130Z 31001KT 9000 FEW015 SCT025 12/11 Q1008 NOSIG   
LEBL 230100Z 20002KT 9000 FEW013 SCT025 13/11 Q1008 NOSIG   
LEBL 230030Z 18004KT 9999 FEW023 13/11 Q1008 NOSIG  
LEBL 230000Z 18004KT 9999 FEW025 14/12 Q1009 NOSIG  
LEBL 222330Z 00000KT 9999 FEW025 15/12 Q1009 NOSIG  
LEBL 222300Z 12003KT 9999 SCT022 14/12 Q1009 NOSIG  
LEBL 222230Z 13003KT 9999 FEW020 14/13 Q1009 NOSIG  
LEBL 222200Z VRB01KT 9999 FEW020 14/12 Q1009 NOSIG  
LEBL 222130Z 19004KT 9999 FEW020 14/13 Q1010 NOSIG  
LEBL 222100Z 19005KT 9999 FEW020 14/12 Q1010 NOSIG  
LEBL 222030Z 18008KT 9999 FEW020 14/12 Q1010 NOSIG  
LEBL 222000Z 19006KT 120V220 9999 FEW020 15/12 Q1010 NOSIG  
LEBL 221930Z 19006KT 9999 FEW020 15/12 Q1010 NOSIG